createdAt,value
2018-12-15T00:01:19.349Z,38.50
2018-12-15T00:03:47.656Z,38.37
2018-12-15T00:06:16.133Z,39.10
2018-12-15T00:08:44.717Z,36.27
2018-12-15T00:11:13.196Z,38.27
2018-12-15T00:13:41.557Z,36.40
2018-12-15T00:16:09.927Z,35.73
2018-12-15T00:18:39.165Z,35.33
2018-12-15T00:21:12.721Z,39.33
2018-12-15T00:23:41.425Z,37.10
2018-12-15T00:26:09.861Z,39.50
2018-12-15T00:28:38.526Z,35.43
2018-12-15T00:31:06.880Z,37.47
2018-12-15T00:33:35.370Z,40.97
2018-12-15T00:36:03.885Z,37.40
2018-12-15T00:38:32.718Z,35.60
2018-12-15T00:41:01.127Z,36.47
2018-12-15T00:43:29.703Z,37.70
2018-12-15T00:45:58.770Z,36.97
2018-12-15T00:48:27.588Z,33.70
2018-12-15T00:50:56.468Z,35.17
2018-12-15T00:53:25.173Z,35.57
2018-12-15T00:55:53.615Z,34.97
2018-12-15T00:58:22.801Z,35.10
2018-12-15T01:00:51.318Z,35.80
2018-12-15T01:03:20.097Z,35.40
2018-12-15T01:05:48.651Z,36.67
2018-12-15T01:08:17.181Z,33.53
2018-12-15T01:10:45.961Z,35.83
2018-12-15T01:13:14.647Z,35.93
2018-12-15T01:15:47.123Z,36.03
2018-12-15T01:18:16.011Z,34.30
2018-12-15T01:20:44.490Z,34.30
2018-12-15T01:23:12.945Z,34.30
2018-12-15T01:25:41.346Z,36.00
2018-12-15T01:28:10.492Z,37.33
2018-12-15T01:30:39.730Z,36.90
2018-12-15T01:33:08.051Z,34.30
2018-12-15T01:35:37.101Z,34.23
2018-12-15T01:38:05.544Z,35.87
2018-12-15T01:40:34.492Z,34.77
2018-12-15T01:43:02.966Z,34.57
2018-12-15T01:45:31.996Z,32.73
2018-12-15T01:48:00.765Z,35.10
2018-12-15T01:50:29.361Z,31.33
2018-12-15T01:52:57.744Z,34.20
2018-12-15T01:55:26.062Z,36.67
2018-12-15T01:57:54.623Z,33.80
2018-12-15T02:00:23.311Z,32.90
2018-12-15T02:02:51.656Z,33.13
2018-12-15T02:05:19.985Z,33.60
2018-12-15T02:07:48.320Z,36.20
2018-12-15T02:10:16.625Z,35.90
2018-12-15T02:12:44.950Z,35.43
2018-12-15T02:15:13.770Z,36.90
2018-12-15T02:17:42.344Z,32.57
2018-12-15T02:20:11.341Z,37.47
2018-12-15T02:22:39.746Z,35.80
2018-12-15T02:25:08.060Z,35.67
2018-12-15T02:27:36.483Z,36.87
2018-12-15T02:30:07.173Z,34.83
2018-12-15T02:32:35.573Z,34.60
2018-12-15T02:35:05.464Z,36.70
2018-12-15T02:37:35.939Z,35.60
2018-12-15T02:40:05.956Z,38.20
2018-12-15T02:42:34.263Z,33.80
2018-12-15T02:45:02.852Z,33.83
2018-12-15T02:47:31.715Z,34.33
2018-12-15T02:50:00.022Z,34.70
2018-12-15T02:52:28.425Z,34.00
2018-12-15T02:54:57.487Z,36.73
2018-12-15T02:57:25.901Z,35.90
2018-12-15T02:59:54.970Z,35.40
2018-12-15T03:02:23.423Z,34.77
2018-12-15T03:04:52.055Z,34.37
2018-12-15T03:07:20.490Z,34.63
2018-12-15T03:09:48.906Z,31.90
2018-12-15T03:12:17.311Z,36.77
2018-12-15T03:14:45.722Z,33.67
2018-12-15T03:17:14.056Z,33.27
2018-12-15T03:19:42.805Z,40.00
2018-12-15T03:22:11.152Z,33.67
2018-12-15T03:24:39.454Z,31.47
2018-12-15T03:27:08.619Z,29.63
2018-12-15T03:29:36.965Z,31.67
2018-12-15T03:32:05.367Z,29.27
2018-12-15T03:34:33.679Z,29.47
2018-12-15T03:37:02.120Z,26.00
2018-12-15T03:39:30.756Z,27.87
2018-12-15T03:41:59.340Z,25.80
2018-12-15T03:44:27.795Z,24.23
2018-12-15T03:46:56.256Z,25.97
2018-12-15T03:49:24.854Z,21.70
2018-12-15T03:51:53.257Z,24.60
2018-12-15T03:54:21.786Z,21.33
2018-12-15T03:56:50.358Z,23.90
2018-12-15T03:59:19.243Z,23.60
2018-12-15T04:01:47.797Z,22.17
2018-12-15T04:04:16.272Z,20.13
2018-12-15T04:06:44.797Z,20.00
2018-12-15T04:09:13.476Z,21.27
2018-12-15T04:11:41.909Z,22.60
2018-12-15T04:14:10.770Z,22.90
2018-12-15T04:16:39.281Z,21.40
2018-12-15T04:19:07.725Z,23.40
2018-12-15T04:21:36.329Z,21.07
2018-12-15T04:24:04.988Z,24.20
2018-12-15T04:26:33.425Z,21.53
2018-12-15T04:29:01.818Z,21.67
2018-12-15T04:31:30.357Z,20.37
2018-12-15T04:33:58.687Z,22.77
2018-12-15T04:36:27.205Z,22.00
2018-12-15T04:38:55.709Z,21.03
2018-12-15T04:41:24.311Z,26.57
2018-12-15T04:43:53.075Z,22.93
2018-12-15T04:46:21.367Z,22.90
2018-12-15T04:48:50.615Z,23.60
2018-12-15T04:51:18.915Z,22.93
2018-12-15T04:53:48.102Z,23.33
2018-12-15T04:56:17.031Z,22.10
2018-12-15T04:58:45.314Z,24.30
2018-12-15T05:01:14.029Z,24.10
2018-12-15T05:03:42.315Z,21.80
2018-12-15T05:06:10.992Z,26.33
2018-12-15T05:08:39.383Z,24.57
2018-12-15T05:11:07.673Z,25.77
2018-12-15T05:13:35.988Z,25.40
2018-12-15T05:16:04.259Z,26.50
2018-12-15T05:18:32.780Z,23.97
2018-12-15T05:21:01.292Z,24.30
2018-12-15T05:23:29.796Z,24.47
2018-12-15T05:25:58.136Z,22.00
2018-12-15T05:28:26.465Z,22.40
2018-12-15T05:30:54.751Z,25.83
2018-12-15T05:33:23.825Z,24.77
2018-12-15T05:35:52.095Z,25.90
2018-12-15T05:38:20.432Z,24.23
2018-12-15T05:40:48.786Z,25.80
2018-12-15T05:43:18.300Z,26.37
2018-12-15T05:45:46.788Z,28.00
2018-12-15T05:48:15.219Z,24.80
2018-12-15T05:50:43.712Z,25.63
2018-12-15T05:53:12.283Z,27.30
2018-12-15T05:55:41.134Z,27.27
2018-12-15T05:58:10.221Z,24.87
2018-12-15T06:00:38.600Z,25.37
2018-12-15T06:03:07.547Z,25.67
2018-12-15T06:05:36.341Z,24.07
2018-12-15T06:08:05.101Z,25.20
2018-12-15T06:10:33.484Z,24.10
2018-12-15T06:13:02.557Z,24.73
2018-12-15T06:15:30.931Z,28.03
2018-12-15T06:17:59.315Z,29.33
2018-12-15T06:20:28.131Z,28.27
2018-12-15T06:22:56.604Z,24.23
2018-12-15T06:25:25.005Z,23.70
2018-12-15T06:27:53.827Z,24.13
2018-12-15T06:30:22.742Z,23.77
2018-12-15T06:32:51.267Z,27.63
2018-12-15T06:35:19.876Z,25.17
2018-12-15T06:37:48.275Z,26.50
2018-12-15T06:40:16.574Z,24.20
2018-12-15T06:42:45.207Z,25.73
2018-12-15T06:45:13.607Z,27.43
2018-12-15T06:47:42.020Z,24.57
2018-12-15T06:50:10.531Z,25.67
2018-12-15T06:52:38.847Z,25.60
2018-12-15T06:55:07.385Z,30.40
2018-12-15T06:57:35.811Z,26.97
2018-12-15T07:00:06.529Z,25.63
2018-12-15T07:02:35.100Z,28.23
2018-12-15T07:05:03.669Z,27.73
2018-12-15T07:07:32.165Z,27.93
2018-12-15T07:10:00.955Z,28.00
2018-12-15T07:12:29.286Z,29.83
2018-12-15T07:14:58.317Z,26.93
2018-12-15T07:17:27.651Z,28.03
2018-12-15T07:19:56.005Z,29.07
2018-12-15T07:22:25.163Z,31.00
2018-12-15T07:24:53.467Z,30.33
2018-12-15T07:27:21.862Z,28.83
2018-12-15T07:29:50.408Z,26.63
2018-12-15T07:32:18.888Z,28.07
2018-12-15T07:34:47.403Z,29.40
2018-12-15T07:37:15.716Z,27.17
2018-12-15T07:39:44.972Z,30.33
2018-12-15T07:42:13.899Z,28.30
2018-12-15T07:44:42.345Z,27.90
2018-12-15T07:47:11.350Z,28.77
2018-12-15T07:49:39.854Z,30.03
2018-12-15T07:52:08.875Z,26.77
2018-12-15T07:54:37.353Z,25.17
2018-12-15T07:57:05.903Z,29.07
2018-12-15T07:59:34.576Z,24.67
2018-12-15T08:02:02.979Z,23.23
2018-12-15T08:04:32.136Z,25.50
2018-12-15T08:07:00.420Z,25.13
2018-12-15T08:09:28.849Z,25.90
2018-12-15T08:12:02.830Z,22.77
2018-12-15T08:14:31.523Z,24.40
2018-12-15T08:17:00.081Z,24.97
2018-12-15T08:19:28.744Z,25.17
2018-12-15T08:21:57.287Z,25.77
2018-12-15T08:24:25.606Z,23.70
2018-12-15T08:26:54.127Z,23.93
2018-12-15T08:29:22.558Z,25.47
2018-12-15T08:31:50.879Z,23.33
2018-12-15T08:34:19.292Z,22.73
2018-12-15T08:36:47.967Z,25.17
2018-12-15T08:39:16.279Z,23.00
2018-12-15T08:41:44.777Z,21.33
2018-12-15T08:44:13.703Z,25.67
2018-12-15T08:46:42.435Z,24.67
2018-12-15T08:49:11.144Z,24.33
2018-12-15T08:51:39.528Z,22.83
2018-12-15T08:54:07.836Z,27.20
2018-12-15T08:56:36.291Z,23.63
2018-12-15T08:59:04.857Z,22.33
2018-12-15T09:01:33.643Z,24.60
2018-12-15T09:04:02.041Z,24.63
2018-12-15T09:06:30.467Z,24.70
2018-12-15T09:08:58.970Z,21.87
2018-12-15T09:11:27.307Z,22.80
2018-12-15T09:13:55.674Z,23.83
2018-12-15T09:16:26.634Z,25.27
2018-12-15T09:18:54.711Z,24.32
2018-12-15T09:21:23.478Z,24.50
2018-12-15T09:23:52.507Z,22.13
2018-12-15T09:26:21.428Z,23.53
2018-12-15T09:28:49.969Z,24.77
2018-12-15T09:31:18.460Z,25.63
2018-12-15T09:33:46.781Z,23.20
2018-12-15T09:36:18.541Z,24.50
2018-12-15T09:38:47.167Z,24.80
2018-12-15T09:41:16.292Z,25.37
2018-12-15T09:43:44.910Z,26.43
2018-12-15T09:46:13.756Z,28.20
2018-12-15T09:48:42.071Z,25.27
2018-12-15T09:51:10.803Z,25.67
2018-12-15T09:53:39.855Z,26.97
2018-12-15T09:56:08.400Z,26.33
2018-12-15T09:58:37.688Z,26.70
2018-12-15T10:01:06.296Z,26.10
2018-12-15T10:03:35.526Z,24.60
2018-12-15T10:06:04.014Z,26.93
2018-12-15T10:08:32.575Z,25.83
2018-12-15T10:11:02.627Z,23.13
2018-12-15T10:13:36.851Z,29.40
2018-12-15T10:16:05.447Z,24.03
2018-12-15T10:18:34.527Z,26.60
2018-12-15T10:21:02.826Z,26.33
2018-12-15T10:23:31.158Z,24.33
2018-12-15T10:26:00.245Z,26.17
2018-12-15T10:28:28.531Z,28.17
2018-12-15T10:31:02.602Z,25.13
2018-12-15T10:33:30.944Z,25.17
2018-12-15T10:35:59.910Z,25.93
2018-12-15T10:38:28.532Z,27.10
2018-12-15T10:40:57.062Z,27.77
2018-12-15T10:43:25.379Z,25.13
2018-12-15T10:45:53.778Z,24.37
2018-12-15T10:48:22.166Z,23.23
2018-12-15T10:50:50.527Z,23.90
2018-12-15T10:53:19.051Z,26.50
2018-12-15T10:55:47.817Z,23.97
2018-12-15T10:58:16.347Z,25.97
2018-12-15T11:00:50.342Z,24.53
2018-12-15T11:03:18.673Z,25.10
2018-12-15T11:05:47.038Z,26.27
2018-12-15T11:08:15.646Z,26.67
2018-12-15T11:10:44.360Z,25.50
2018-12-15T11:13:12.918Z,25.67
2018-12-15T11:15:45.742Z,26.57
2018-12-15T11:18:14.089Z,27.90
2018-12-15T11:20:42.919Z,25.20
2018-12-15T11:23:11.527Z,26.07
2018-12-15T11:25:40.738Z,26.90
2018-12-15T11:28:09.711Z,26.33
2018-12-15T11:30:38.222Z,24.63
2018-12-15T11:33:08.995Z,26.63
2018-12-15T11:35:37.904Z,26.07
2018-12-15T11:38:06.584Z,27.43
2018-12-15T11:40:35.124Z,26.63
2018-12-15T11:43:03.672Z,24.93
2018-12-15T11:45:32.254Z,22.93
2018-12-15T11:48:00.707Z,25.93
2018-12-15T11:50:29.046Z,25.33
2018-12-15T11:52:57.612Z,23.90
2018-12-15T11:55:26.256Z,23.43
2018-12-15T11:57:54.734Z,25.33
2018-12-15T12:00:23.790Z,25.20
2018-12-15T12:02:52.154Z,25.23
2018-12-15T12:05:20.603Z,23.23
2018-12-15T12:07:49.091Z,23.93
2018-12-15T12:10:17.643Z,20.17
2018-12-15T12:12:46.237Z,25.93
2018-12-15T12:15:14.755Z,24.30
2018-12-15T12:17:43.092Z,22.73
2018-12-15T12:20:11.545Z,24.10
2018-12-15T12:22:40.142Z,22.30
2018-12-15T12:25:09.013Z,24.17
2018-12-15T12:27:38.272Z,25.37
2018-12-15T12:30:07.587Z,23.17
2018-12-15T12:32:36.146Z,26.20
2018-12-15T12:35:05.832Z,24.80
2018-12-15T12:37:34.264Z,25.43
2018-12-15T12:40:03.161Z,28.23
2018-12-15T12:42:31.677Z,22.60
2018-12-15T12:45:00.195Z,22.20
2018-12-15T12:47:29.279Z,22.97
2018-12-15T12:49:57.752Z,25.40
2018-12-15T12:52:26.160Z,25.83
2018-12-15T12:54:54.821Z,24.73
2018-12-15T12:57:23.141Z,23.87
2018-12-15T12:59:51.595Z,23.93
2018-12-15T13:02:20.552Z,23.50
2018-12-15T13:04:49.080Z,25.60
2018-12-15T13:07:17.617Z,23.30
2018-12-15T13:09:46.209Z,25.37
2018-12-15T13:12:14.654Z,22.43
2018-12-15T13:14:42.972Z,26.40
2018-12-15T13:17:11.325Z,24.37
2018-12-15T13:19:40.154Z,23.23
2018-12-15T13:22:08.503Z,25.37
2018-12-15T13:24:36.998Z,24.13
2018-12-15T13:27:08.747Z,20.97
2018-12-15T13:29:38.129Z,21.50
2018-12-15T13:32:06.940Z,22.73
2018-12-15T13:34:35.599Z,22.63
2018-12-15T13:37:04.210Z,25.50
2018-12-15T13:39:32.890Z,23.30
2018-12-15T13:42:01.252Z,25.80
2018-12-15T13:44:29.745Z,21.67
2018-12-15T13:46:58.046Z,24.70
2018-12-15T13:49:26.520Z,24.70
2018-12-15T13:51:55.022Z,23.83
2018-12-15T13:54:23.465Z,25.30
2018-12-15T13:56:52.322Z,22.33
2018-12-15T13:59:20.907Z,24.23
2018-12-15T14:01:49.380Z,25.43
2018-12-15T14:04:17.721Z,23.23
2018-12-15T14:06:46.269Z,23.97
2018-12-15T14:09:14.980Z,25.27
2018-12-15T14:11:43.468Z,24.13
2018-12-15T14:14:12.051Z,24.63
2018-12-15T14:16:40.568Z,23.43
2018-12-15T14:19:09.015Z,23.27
2018-12-15T14:21:38.200Z,25.10
2018-12-15T14:24:06.518Z,25.23
2018-12-15T14:26:35.031Z,23.27
2018-12-15T14:29:03.344Z,20.87
2018-12-15T14:31:32.064Z,25.27
2018-12-15T14:34:00.536Z,25.90
2018-12-15T14:36:28.997Z,24.27
2018-12-15T14:38:57.372Z,24.10
2018-12-15T14:41:26.012Z,25.03
2018-12-15T14:43:54.542Z,29.13
2018-12-15T14:46:23.316Z,25.43
2018-12-15T14:48:51.817Z,27.83
2018-12-15T14:51:20.255Z,23.23
2018-12-15T14:53:48.870Z,23.83
2018-12-15T14:56:17.370Z,22.97
2018-12-15T14:58:45.874Z,24.93
2018-12-15T15:01:14.247Z,23.43
2018-12-15T15:03:43.099Z,23.90
2018-12-15T15:06:11.542Z,23.80
2018-12-15T15:08:39.892Z,25.00
2018-12-15T15:11:08.537Z,23.23
2018-12-15T15:13:37.288Z,24.80
2018-12-15T15:16:05.651Z,25.50
2018-12-15T15:18:34.634Z,24.30
2018-12-15T15:21:03.072Z,24.93
2018-12-15T15:23:31.884Z,27.00
2018-12-15T15:26:00.269Z,23.90
2018-12-15T15:28:28.759Z,23.23
2018-12-15T15:30:57.451Z,24.77
2018-12-15T15:33:25.944Z,26.73
2018-12-15T15:35:54.486Z,23.47
2018-12-15T15:38:23.013Z,28.33
2018-12-15T15:40:51.765Z,26.77
2018-12-15T15:43:20.926Z,24.93
2018-12-15T15:45:49.429Z,23.37
2018-12-15T15:48:17.946Z,27.70
2018-12-15T15:50:46.567Z,24.85
2018-12-15T15:53:15.076Z,27.33
2018-12-15T15:55:43.593Z,27.30
2018-12-15T15:58:12.418Z,25.40
2018-12-15T16:00:40.868Z,24.27
2018-12-15T16:03:09.808Z,28.33
2018-12-15T16:05:38.323Z,26.60
2018-12-15T16:08:06.944Z,25.87
2018-12-15T16:10:35.662Z,27.80
2018-12-15T16:15:42.786Z,25.53
2018-12-15T16:18:11.279Z,28.93
2018-12-15T16:20:43.321Z,27.93
2018-12-15T16:23:11.329Z,27.67
2018-12-15T16:25:40.071Z,30.73
2018-12-15T16:28:08.545Z,27.47
2018-12-15T16:30:37.175Z,27.77
2018-12-15T16:33:05.474Z,26.60
2018-12-15T16:35:34.219Z,26.17
2018-12-15T16:38:02.620Z,28.20
2018-12-15T16:40:31.341Z,29.90
2018-12-15T16:42:59.910Z,26.80
2018-12-15T16:45:28.544Z,28.77
2018-12-15T16:47:57.078Z,27.40
2018-12-15T16:50:25.678Z,28.13
2018-12-15T16:52:54.405Z,29.63
2018-12-15T16:55:23.380Z,26.83
2018-12-15T16:57:51.940Z,26.03
2018-12-15T17:00:20.576Z,25.70
2018-12-15T17:02:49.257Z,26.80
2018-12-15T17:05:17.575Z,28.57
2018-12-15T17:07:46.849Z,27.00
2018-12-15T17:10:15.354Z,26.07
2018-12-15T17:12:43.749Z,27.10
2018-12-15T17:15:12.329Z,26.03
2018-12-15T17:17:40.832Z,25.53
2018-12-15T17:20:10.594Z,26.57
2018-12-15T17:22:39.171Z,27.13
2018-12-15T17:25:08.659Z,27.33
2018-12-15T17:27:37.469Z,27.30
2018-12-15T17:30:08.544Z,24.13
2018-12-15T17:32:37.037Z,24.20
2018-12-15T17:35:06.227Z,24.53
2018-12-15T17:37:34.555Z,25.10
2018-12-15T17:40:03.175Z,25.90
2018-12-15T17:42:31.794Z,25.20
2018-12-15T17:45:00.220Z,25.77
2018-12-15T17:47:28.665Z,22.87
2018-12-15T17:49:57.657Z,23.93
2018-12-15T17:52:26.707Z,25.93
2018-12-15T17:54:55.302Z,28.17
2018-12-15T17:57:24.066Z,24.73
2018-12-15T17:59:52.590Z,23.83
2018-12-15T18:02:20.923Z,26.63
2018-12-15T18:04:49.419Z,25.83
2018-12-15T18:07:17.871Z,26.23
2018-12-15T18:09:46.452Z,26.07
2018-12-15T18:12:14.875Z,28.00
2018-12-15T18:14:43.320Z,27.27
2018-12-15T18:17:12.104Z,27.93
2018-12-15T18:19:40.986Z,27.90
2018-12-15T18:22:09.519Z,26.57
2018-12-15T18:24:37.982Z,25.87
2018-12-15T18:27:06.276Z,28.10
2018-12-15T18:29:34.649Z,27.93
2018-12-15T18:32:03.215Z,25.33
2018-12-15T18:34:31.830Z,26.37
2018-12-15T18:37:00.143Z,27.77
2018-12-15T18:39:28.582Z,26.77
2018-12-15T18:41:57.713Z,26.73
2018-12-15T18:44:26.678Z,28.63
2018-12-15T18:46:55.034Z,34.83
2018-12-15T18:49:23.450Z,34.00
2018-12-15T18:51:52.025Z,32.30
2018-12-15T18:54:20.680Z,29.93
2018-12-15T18:56:50.004Z,28.27
2018-12-15T18:59:18.932Z,30.03
2018-12-15T19:01:47.507Z,26.77
2018-12-15T19:04:16.275Z,33.00
2018-12-15T19:06:45.878Z,27.90
2018-12-15T19:09:14.255Z,27.73
2018-12-15T19:11:42.680Z,29.43
2018-12-15T19:14:11.427Z,30.70
2018-12-15T19:16:39.858Z,29.77
2018-12-15T19:19:08.166Z,30.37
2018-12-15T19:21:36.582Z,30.90
2018-12-15T19:24:05.035Z,26.00
2018-12-15T19:26:33.677Z,26.60
2018-12-15T19:29:02.133Z,27.47
2018-12-15T19:31:30.539Z,30.43
2018-12-15T19:33:59.547Z,39.00
2018-12-15T19:36:27.885Z,28.57
2018-12-15T19:38:56.235Z,28.60
2018-12-15T19:41:24.666Z,30.10
2018-12-15T19:43:53.326Z,29.63
2018-12-15T19:46:21.777Z,26.37
2018-12-15T19:48:50.208Z,27.40
2018-12-15T19:51:19.417Z,25.73
2018-12-15T19:53:48.242Z,30.47
2018-12-15T19:56:16.859Z,28.17
2018-12-15T19:58:45.254Z,28.40
2018-12-15T20:01:13.810Z,24.37
2018-12-15T20:03:42.364Z,25.93
2018-12-15T20:06:16.044Z,30.83
2018-12-15T20:08:44.753Z,30.30
2018-12-15T20:11:13.098Z,27.23
2018-12-15T20:13:42.247Z,31.57
2018-12-15T20:16:10.576Z,29.47
2018-12-15T20:18:38.977Z,28.57
2018-12-15T20:21:07.639Z,31.07
2018-12-15T20:23:36.213Z,26.00
2018-12-15T20:26:04.608Z,27.53
2018-12-15T20:28:33.365Z,27.00
2018-12-15T20:31:01.746Z,26.60
2018-12-15T20:33:30.193Z,28.70
2018-12-15T20:35:58.547Z,23.23
2018-12-15T20:38:27.678Z,23.50
2018-12-15T20:40:56.272Z,30.27
2018-12-15T20:43:25.159Z,23.17
2018-12-15T20:45:53.677Z,25.80
2018-12-15T20:48:22.328Z,25.83
2018-12-15T20:50:51.349Z,25.63
2018-12-15T20:53:19.887Z,25.40
2018-12-15T20:55:49.239Z,25.67
2018-12-15T20:58:17.555Z,27.07
2018-12-15T21:00:46.039Z,26.10
2018-12-15T21:03:14.531Z,26.90
2018-12-15T21:05:43.135Z,29.30
2018-12-15T21:08:11.657Z,31.20
2018-12-15T21:10:40.401Z,27.43
2018-12-15T21:13:08.964Z,26.27
2018-12-15T21:15:38.969Z,27.33
2018-12-15T21:18:07.613Z,26.47
2018-12-15T21:20:36.417Z,30.37
2018-12-15T21:23:05.754Z,27.30
2018-12-15T21:25:34.123Z,26.17
2018-12-15T21:28:03.334Z,27.33
2018-12-15T21:30:31.720Z,26.43
2018-12-15T21:33:00.152Z,27.53
2018-12-15T21:35:28.732Z,26.07
2018-12-15T21:37:57.213Z,30.40
2018-12-15T21:40:25.771Z,28.00
2018-12-15T21:42:54.434Z,26.00
2018-12-15T21:45:22.851Z,28.13
2018-12-15T21:47:57.439Z,29.47
2018-12-15T21:50:22.400Z,28.93
2018-12-15T21:52:50.718Z,28.77
2018-12-15T21:55:19.015Z,31.20
2018-12-15T21:57:47.667Z,28.07
2018-12-15T22:00:16.101Z,28.97
2018-12-15T22:02:44.519Z,27.33
2018-12-15T22:05:13.413Z,29.60
2018-12-15T22:07:43.768Z,27.27
2018-12-15T22:10:12.290Z,29.03
2018-12-15T22:12:41.242Z,28.77
2018-12-15T22:15:09.701Z,28.90
2018-12-15T22:17:38.351Z,27.93
2018-12-15T22:20:08.569Z,27.60
2018-12-15T22:22:37.323Z,28.07
2018-12-15T22:25:05.942Z,29.50
2018-12-15T22:27:34.641Z,27.90
2018-12-15T22:30:03.158Z,26.33
2018-12-15T22:32:32.074Z,30.80
2018-12-15T22:35:00.794Z,29.33
2018-12-15T22:37:29.242Z,26.93
2018-12-15T22:39:57.923Z,29.30
2018-12-15T22:42:26.747Z,28.60
2018-12-15T22:44:55.333Z,27.70
2018-12-15T22:47:23.772Z,25.77
2018-12-15T22:49:52.424Z,26.77
2018-12-15T22:52:21.451Z,24.80
2018-12-15T22:54:50.008Z,30.40
2018-12-15T22:57:18.343Z,27.50
2018-12-15T22:59:46.827Z,29.47
2018-12-15T23:02:15.278Z,30.90
2018-12-15T23:04:43.974Z,28.23
2018-12-15T23:07:12.605Z,28.97
2018-12-15T23:09:41.062Z,26.23
2018-12-15T23:12:09.583Z,27.10
2018-12-15T23:14:38.163Z,26.73
2018-12-15T23:17:06.629Z,28.27
2018-12-15T23:19:35.645Z,25.03
2018-12-15T23:22:04.191Z,25.63
2018-12-15T23:24:32.719Z,26.07
2018-12-15T23:27:01.415Z,27.77
2018-12-15T23:29:30.780Z,26.10
2018-12-15T23:31:59.727Z,26.60
2018-12-15T23:34:28.247Z,29.17
2018-12-15T23:36:56.747Z,26.60
2018-12-15T23:39:25.048Z,29.93
2018-12-15T23:41:53.755Z,28.53
2018-12-15T23:44:22.230Z,26.90
2018-12-15T23:46:50.553Z,29.20
2018-12-15T23:49:18.894Z,27.67
2018-12-15T23:51:47.506Z,29.07
2018-12-15T23:54:15.935Z,25.27
2018-12-15T23:56:44.433Z,27.73
2018-12-15T23:59:12.898Z,25.20
